createdAt,value
2018-06-28T00:00:11.700Z,98591.94
2018-06-28T00:02:40.906Z,98590.05
2018-06-28T00:05:10.401Z,98587.60
2018-06-28T00:07:39.828Z,98592.62
2018-06-28T00:10:09.435Z,98586.80
2018-06-28T00:12:38.734Z,98582.14
2018-06-28T00:15:08.479Z,98580.86
2018-06-28T00:17:37.566Z,98583.14
2018-06-28T00:20:07.052Z,98587.16
2018-06-28T00:22:37.194Z,98587.19
2018-06-28T00:25:06.478Z,98590.84
2018-06-28T00:27:35.766Z,98586.52
2018-06-28T00:30:05.503Z,98586.99
2018-06-28T00:32:35.087Z,98586.02
2018-06-28T00:35:04.254Z,98592.02
2018-06-28T00:37:33.559Z,98586.98
2018-06-28T00:40:05.835Z,98587.45
2018-06-28T00:42:34.955Z,98583.97
2018-06-28T00:45:04.102Z,98588.02
2018-06-28T00:47:33.208Z,98590.66
2018-06-28T00:50:02.304Z,98585.81
2018-06-28T00:52:31.399Z,98582.72
2018-06-28T00:55:00.499Z,98580.05
2018-06-28T00:57:31.235Z,98579.88
2018-06-28T01:00:00.349Z,98574.30
2018-06-28T01:02:29.451Z,98576.53
2018-06-28T01:04:58.590Z,98568.87
2018-06-28T01:07:27.798Z,98568.80
2018-06-28T01:09:56.938Z,98564.89
2018-06-28T01:12:26.063Z,98567.78
2018-06-28T01:14:55.042Z,98562.67
2018-06-28T01:17:24.151Z,98556.23
2018-06-28T01:19:53.321Z,98549.16
2018-06-28T01:22:22.418Z,98540.39
2018-06-28T01:24:51.579Z,98541.23
2018-06-28T01:27:20.754Z,98535.77
2018-06-28T01:29:51.083Z,98536.50
2018-06-28T01:32:20.206Z,98535.16
2018-06-28T01:34:49.327Z,98539.95
2018-06-28T01:37:18.724Z,98543.47
2018-06-28T01:39:48.627Z,98541.77
2018-06-28T01:44:25.439Z,98535.55
2018-06-28T01:46:56.279Z,98528.27
2018-06-28T01:49:25.885Z,98521.21
2018-06-28T01:51:55.791Z,98524.16
2018-06-28T01:54:25.339Z,98527.36
2018-06-28T01:56:54.647Z,98522.69
2018-06-28T01:59:23.791Z,98522.54
2018-06-28T02:01:52.955Z,98520.45
2018-06-28T02:04:22.063Z,98525.48
2018-06-28T02:06:51.992Z,98524.38
2018-06-28T02:09:21.076Z,98523.41
2018-06-28T02:11:50.191Z,98528.60
2018-06-28T02:14:19.323Z,98527.19
2018-06-28T02:16:49.187Z,98530.59
2018-06-28T02:19:19.134Z,98525.23
2018-06-28T02:21:49.004Z,98529.77
2018-06-28T02:24:18.234Z,98524.47
2018-06-28T02:26:47.955Z,98531.72
2018-06-28T02:29:17.080Z,98529.58
2018-06-28T02:31:46.159Z,98534.10
2018-06-28T02:34:15.238Z,98530.52
2018-06-28T02:36:44.339Z,98525.34
2018-06-28T02:39:13.419Z,98526.94
2018-06-28T02:41:43.310Z,98530.94
2018-06-28T02:44:12.466Z,98522.79
2018-06-28T02:46:41.485Z,98519.11
2018-06-28T02:49:10.659Z,98520.13
2018-06-28T02:51:39.886Z,98517.04
2018-06-28T02:54:10.380Z,98521.22
2018-06-28T02:56:40.477Z,98519.23
2018-06-28T02:59:10.611Z,98518.50
2018-06-28T03:01:39.932Z,98513.69
2018-06-28T03:04:09.194Z,98513.77
2018-06-28T03:06:38.671Z,98513.56
2018-06-28T03:09:10.674Z,98513.88
2018-06-28T03:11:39.995Z,98515.65
2018-06-28T03:14:09.416Z,98524.74
2018-06-28T03:16:38.511Z,98517.38
2018-06-28T03:19:07.655Z,98522.86
2018-06-28T03:21:36.796Z,98517.51
2018-06-28T03:24:05.892Z,98517.27
2018-06-28T03:26:35.294Z,98521.29
2018-06-28T03:29:04.377Z,98522.98
2018-06-28T03:31:33.454Z,98519.70
2018-06-28T03:34:02.603Z,98526.81
2018-06-28T03:36:31.704Z,98535.13
2018-06-28T03:39:09.738Z,98529.91
2018-06-28T03:41:38.902Z,98527.42
2018-06-28T03:44:08.362Z,98530.94
2018-06-28T03:46:38.137Z,98530.54
2018-06-28T03:49:07.591Z,98530.36
2018-06-28T03:51:36.698Z,98539.02
2018-06-28T03:54:06.440Z,98536.94
2018-06-28T03:56:35.590Z,98535.65
2018-06-28T03:59:04.813Z,98537.34
2018-06-28T04:01:34.003Z,98530.81
2018-06-28T04:04:03.158Z,98525.25
2018-06-28T04:06:32.284Z,98524.80
2018-06-28T04:09:01.372Z,98522.71
2018-06-28T04:11:30.467Z,98531.42
2018-06-28T04:13:59.807Z,98532.23
2018-06-28T04:16:29.198Z,98536.25
2018-06-28T04:18:59.499Z,98527.33
2018-06-28T04:21:28.790Z,98534.02
2018-06-28T04:23:58.115Z,98527.59
2018-06-28T04:26:27.394Z,98530.79
2018-06-28T04:28:56.562Z,98531.35
2018-06-28T04:31:26.328Z,98529.78
2018-06-28T04:33:56.447Z,98533.27
2018-06-28T04:36:25.714Z,98534.62
2018-06-28T04:38:55.022Z,98534.94
2018-06-28T04:41:24.560Z,98526.80
2018-06-28T04:43:54.043Z,98535.97
2018-06-28T04:46:23.650Z,98536.45
2018-06-28T04:48:52.926Z,98529.37
2018-06-28T04:51:22.211Z,98531.08
2018-06-28T04:53:52.063Z,98531.99
2018-06-28T04:56:21.137Z,98537.32
2018-06-28T04:58:50.218Z,98536.63
2018-06-28T05:01:19.377Z,98540.72
2018-06-28T05:03:48.407Z,98538.08
2018-06-28T05:06:17.465Z,98545.17
2018-06-28T05:08:47.468Z,98538.89
2018-06-28T05:11:17.023Z,98538.73
2018-06-28T05:13:46.377Z,98537.64
2018-06-28T05:16:15.996Z,98531.77
2018-06-28T05:18:45.775Z,98539.36
2018-06-28T05:21:15.047Z,98542.51
2018-06-28T05:23:44.290Z,98546.55
2018-06-28T05:26:14.459Z,98544.67
2018-06-28T05:28:43.878Z,98541.04
2018-06-28T05:31:13.555Z,98543.36
2018-06-28T05:33:42.887Z,98536.05
2018-06-28T05:36:12.099Z,98536.23
2018-06-28T05:38:41.820Z,98535.36
2018-06-28T05:41:10.924Z,98530.69
2018-06-28T05:43:40.050Z,98536.57
2018-06-28T05:46:09.182Z,98538.91
2018-06-28T05:48:38.260Z,98538.13
2018-06-28T05:51:07.466Z,98539.33
2018-06-28T05:53:36.377Z,98533.64
2018-06-28T05:56:05.483Z,98529.66
2018-06-28T05:58:34.599Z,98538.30
2018-06-28T06:01:04.328Z,98531.20
2018-06-28T06:03:33.691Z,98527.64
2018-06-28T06:06:02.759Z,98533.34
2018-06-28T06:08:31.855Z,98528.13
2018-06-28T06:11:01.159Z,98522.11
2018-06-28T06:13:30.283Z,98525.23
2018-06-28T06:15:59.487Z,98526.47
2018-06-28T06:18:28.751Z,98529.27
2018-06-28T06:20:58.547Z,98526.19
2018-06-28T06:23:27.807Z,98529.44
2018-06-28T06:25:56.887Z,98530.41
2018-06-28T06:28:26.183Z,98531.25
2018-06-28T06:30:55.406Z,98532.25
2018-06-28T06:33:25.116Z,98524.78
2018-06-28T06:35:54.290Z,98524.27
2018-06-28T06:38:23.507Z,98518.06
2018-06-28T06:40:53.251Z,98524.52
2018-06-28T06:43:23.153Z,98519.45
2018-06-28T06:45:53.071Z,98514.58
2018-06-28T06:48:23.007Z,98518.08
2018-06-28T06:50:52.855Z,98521.97
2018-06-28T06:53:22.850Z,98522.41
2018-06-28T06:55:52.320Z,98511.09
2018-06-28T06:58:21.954Z,98514.05
2018-06-28T07:00:51.920Z,98513.86
2018-06-28T07:03:21.898Z,98515.04
2018-06-28T07:05:52.140Z,98504.86
2018-06-28T07:08:21.283Z,98505.55
2018-06-28T07:10:50.406Z,98503.81
2018-06-28T07:13:19.540Z,98508.75
2018-06-28T07:15:48.687Z,98494.55
2018-06-28T07:18:17.795Z,98507.00
2018-06-28T07:20:47.409Z,98497.25
2018-06-28T07:23:16.510Z,98496.30
2018-06-28T07:25:45.783Z,98491.36
2018-06-28T07:28:15.238Z,98493.06
2018-06-28T07:30:44.959Z,98491.69
2018-06-28T07:33:14.241Z,98491.14
2018-06-28T07:35:44.203Z,98496.46
2018-06-28T07:38:13.291Z,98501.95
2018-06-28T07:40:42.375Z,98495.83
2018-06-28T07:43:11.501Z,98494.10
2018-06-28T07:45:40.567Z,98500.94
2018-06-28T07:48:09.670Z,98492.55
2018-06-28T07:50:38.795Z,98492.14
2018-06-28T07:53:08.320Z,98485.14
2018-06-28T07:55:37.780Z,98490.69
2018-06-28T07:58:07.111Z,98487.09
2018-06-28T08:00:36.470Z,98480.92
2018-06-28T08:03:07.591Z,98474.11
2018-06-28T08:05:37.414Z,98487.10
2018-06-28T08:08:07.412Z,98481.05
2018-06-28T08:10:36.761Z,98480.32
2018-06-28T08:13:07.110Z,98481.67
2018-06-28T08:15:36.423Z,98485.50
2018-06-28T08:18:06.376Z,98483.66
2018-06-28T08:20:35.530Z,98493.69
2018-06-28T08:23:04.627Z,98482.04
2018-06-28T08:25:34.761Z,98483.72
2018-06-28T08:28:03.857Z,98484.95
2018-06-28T08:30:32.951Z,98478.20
2018-06-28T08:33:02.355Z,98486.28
2018-06-28T08:35:32.207Z,98479.83
2018-06-28T08:38:01.975Z,98475.59
2018-06-28T08:40:31.266Z,98478.52
2018-06-28T08:43:00.516Z,98479.19
2018-06-28T08:45:30.361Z,98479.65
2018-06-28T08:48:00.278Z,98474.61
2018-06-28T08:50:30.211Z,98478.36
2018-06-28T08:52:59.935Z,98476.66
2018-06-28T08:55:29.195Z,98473.41
2018-06-28T08:57:59.265Z,98475.56
2018-06-28T09:00:29.123Z,98482.01
2018-06-28T09:02:58.944Z,98481.67
2018-06-28T09:05:28.482Z,98476.87
2018-06-28T09:07:57.571Z,98479.33
2018-06-28T09:10:26.672Z,98473.05
2018-06-28T09:12:56.071Z,98474.64
2018-06-28T09:15:25.692Z,98460.75
2018-06-28T09:17:55.002Z,98470.33
2018-06-28T09:20:24.654Z,98468.91
2018-06-28T09:22:54.017Z,98462.16
2018-06-28T09:25:23.315Z,98459.47
2018-06-28T09:27:52.614Z,98461.85
2018-06-28T09:30:22.273Z,98458.08
2018-06-28T09:32:51.606Z,98459.08
2018-06-28T09:35:20.926Z,98454.80
2018-06-28T09:37:50.330Z,98455.53
2018-06-28T09:40:19.698Z,98455.48
2018-06-28T09:42:49.505Z,98444.99
2018-06-28T09:45:18.798Z,98437.18
2018-06-28T09:47:48.427Z,98431.57
2018-06-28T09:50:17.790Z,98434.40
2018-06-28T09:52:47.082Z,98440.05
2018-06-28T09:55:16.842Z,98441.11
2018-06-28T09:57:46.397Z,98439.52
2018-06-28T10:00:22.530Z,98446.28
2018-06-28T10:02:51.767Z,98438.63
2018-06-28T10:05:21.114Z,98437.48
2018-06-28T10:07:50.558Z,98449.39
2018-06-28T10:10:20.110Z,98447.52
2018-06-28T10:12:50.474Z,98450.28
2018-06-28T10:15:19.828Z,98435.59
2018-06-28T10:17:48.946Z,98439.55
2018-06-28T10:20:18.039Z,98437.66
2018-06-28T10:22:47.134Z,98450.12
2018-06-28T10:25:16.218Z,98443.95
2018-06-28T10:27:45.339Z,98445.21
2018-06-28T10:30:15.212Z,98446.75
2018-06-28T10:32:44.427Z,98448.13
2018-06-28T10:35:14.233Z,98438.50
2018-06-28T10:37:43.363Z,98437.93
2018-06-28T10:40:12.455Z,98437.16
2018-06-28T10:42:42.327Z,98438.64
2018-06-28T10:45:11.547Z,98442.91
2018-06-28T10:47:41.425Z,98444.65
2018-06-28T10:50:11.477Z,98442.58
2018-06-28T10:52:40.803Z,98444.11
2018-06-28T10:55:10.835Z,98438.67
2018-06-28T10:57:40.286Z,98439.20
2018-06-28T11:00:09.646Z,98439.72
2018-06-28T11:02:38.998Z,98445.92
2018-06-28T11:05:09.745Z,98446.10
2018-06-28T11:07:39.480Z,98450.25
2018-06-28T11:10:08.798Z,98456.00
2018-06-28T11:12:38.063Z,98449.53
2018-06-28T11:15:07.956Z,98438.55
2018-06-28T11:17:37.886Z,98441.05
2018-06-28T11:20:08.368Z,98443.01
2018-06-28T11:22:37.455Z,98440.12
2018-06-28T11:25:06.614Z,98430.31
2018-06-28T11:27:35.738Z,98430.54
2018-06-28T11:30:06.102Z,98427.65
2018-06-28T11:32:35.778Z,98421.78
2018-06-28T11:35:04.883Z,98428.50
2018-06-28T11:37:34.211Z,98427.59
2018-06-28T11:40:03.383Z,98421.58
2018-06-28T11:42:32.947Z,98414.77
2018-06-28T11:45:02.991Z,98412.16
2018-06-28T11:47:32.386Z,98410.36
2018-06-28T11:50:02.018Z,98401.36
2018-06-28T11:52:31.886Z,98408.11
2018-06-28T11:55:01.043Z,98410.70
2018-06-28T11:57:30.187Z,98417.22
2018-06-28T12:00:00.107Z,98416.11
2018-06-28T12:02:29.215Z,98419.69
2018-06-28T12:04:58.686Z,98415.08
2018-06-28T12:07:27.824Z,98409.58
2018-06-28T12:09:57.882Z,98417.00
2018-06-28T12:12:28.150Z,98415.36
2018-06-28T12:14:57.286Z,98418.91
2018-06-28T12:17:26.370Z,98417.04
2018-06-28T12:19:55.858Z,98413.87
2018-06-28T12:22:25.048Z,98414.31
2018-06-28T12:24:54.218Z,98415.66
2018-06-28T12:27:23.476Z,98420.52
2018-06-28T12:29:52.594Z,98413.84
2018-06-28T12:32:21.658Z,98419.52
2018-06-28T12:34:50.839Z,98416.34
2018-06-28T12:37:20.030Z,98413.52
2018-06-28T12:39:50.752Z,98410.39
2018-06-28T12:42:20.071Z,98410.70
2018-06-28T12:44:49.690Z,98412.65
2018-06-28T12:47:56.214Z,98404.95
2018-06-28T12:50:25.530Z,98403.39
2018-06-28T12:52:58.652Z,98393.39
2018-06-28T12:55:36.217Z,98389.83
2018-06-28T12:58:05.864Z,98385.77
2018-06-28T13:00:36.675Z,98383.18
2018-06-28T13:03:05.971Z,98376.94
2018-06-28T13:05:35.599Z,98372.23
2018-06-28T13:08:04.819Z,98375.52
2018-06-28T13:10:33.919Z,98369.57
2018-06-28T13:13:03.452Z,98370.89
2018-06-28T13:20:29.258Z,98371.67
2018-06-28T13:22:58.366Z,98370.05
2018-06-28T13:25:27.475Z,98362.40
2018-06-28T13:27:56.594Z,98352.27
2018-06-28T13:30:27.435Z,98358.23
2018-06-28T13:32:56.527Z,98352.25
2018-06-28T13:35:25.610Z,98350.95
2018-06-28T13:37:54.718Z,98343.94
2018-06-28T13:40:24.134Z,98345.95
2018-06-28T13:42:53.210Z,98350.28
2018-06-28T13:45:22.420Z,98343.02
2018-06-28T13:47:51.588Z,98340.27
2018-06-28T13:50:21.506Z,98343.38
2018-06-28T13:52:50.717Z,98342.81
2018-06-28T13:55:19.879Z,98340.42
2018-06-28T13:57:49.495Z,98341.92
2018-06-28T14:00:21.402Z,98339.27
2018-06-28T14:02:51.336Z,98332.91
2018-06-28T14:05:20.627Z,98334.98
2018-06-28T14:07:50.503Z,98334.97
2018-06-28T14:10:20.821Z,98333.77
2018-06-28T14:12:51.207Z,98344.08
2018-06-28T14:15:20.362Z,98342.50
2018-06-28T14:17:49.458Z,98331.14
2018-06-28T14:20:18.594Z,98326.79
2018-06-28T14:22:47.781Z,98326.77
2018-06-28T14:25:17.561Z,98325.63
2018-06-28T14:27:47.274Z,98319.90
2018-06-28T14:30:17.157Z,98335.92
2018-06-28T14:32:47.096Z,98337.90
2018-06-28T14:35:17.058Z,98338.05
2018-06-28T14:37:46.988Z,98337.19
2018-06-28T14:40:16.818Z,98338.91
2018-06-28T14:42:45.919Z,98333.08
2018-06-28T14:45:15.450Z,98331.21
2018-06-28T14:47:44.874Z,98327.33
2018-06-28T14:50:13.970Z,98329.48
2018-06-28T14:52:43.108Z,98327.46
2018-06-28T14:55:12.974Z,98320.71
2018-06-28T14:57:42.152Z,98327.68
2018-06-28T15:00:11.246Z,98325.98
2018-06-28T15:02:40.776Z,98328.42
2018-06-28T15:05:10.259Z,98339.97
2018-06-28T15:07:39.698Z,98337.95
2018-06-28T15:10:09.439Z,98338.52
2018-06-28T15:12:39.583Z,98333.94
2018-06-28T15:15:09.013Z,98345.38
2018-06-28T15:17:38.735Z,98343.92
2018-06-28T15:20:08.213Z,98346.85
2018-06-28T15:22:38.218Z,98354.03
2018-06-28T15:25:08.030Z,98355.45
2018-06-28T15:27:37.985Z,98355.75
2018-06-28T15:30:07.125Z,98344.16
2018-06-28T15:32:36.430Z,98344.37
2018-06-28T15:35:06.009Z,98347.44
2018-06-28T15:37:35.419Z,98345.08
2018-06-28T15:40:05.327Z,98332.77
2018-06-28T15:42:34.947Z,98338.07
2018-06-28T15:45:05.378Z,98333.56
2018-06-28T15:47:35.189Z,98333.19
2018-06-28T15:50:04.850Z,98323.02
2018-06-28T15:52:33.958Z,98324.86
2018-06-28T15:55:03.159Z,98319.45
2018-06-28T15:57:32.353Z,98319.86
2018-06-28T16:00:01.520Z,98320.34
2018-06-28T16:02:30.702Z,98316.02
2018-06-28T16:04:59.811Z,98307.53
2018-06-28T16:07:28.936Z,98302.55
2018-06-28T16:09:58.123Z,98304.16
2018-06-28T16:12:27.288Z,98299.06
2018-06-28T16:14:56.637Z,98297.96
2018-06-28T16:17:25.766Z,98294.53
2018-06-28T16:19:54.935Z,98292.81
2018-06-28T16:22:25.042Z,98289.14
2018-06-28T16:24:56.235Z,98292.50
2018-06-28T16:27:25.380Z,98287.50
2018-06-28T16:29:54.784Z,98285.29
2018-06-28T16:32:24.062Z,98287.39
2018-06-28T16:34:53.308Z,98282.77
2018-06-28T16:37:22.893Z,98275.04
2018-06-28T16:39:52.326Z,98281.20
2018-06-28T16:42:22.123Z,98278.67
2018-06-28T16:44:51.252Z,98284.44
2018-06-28T16:47:20.341Z,98276.78
2018-06-28T16:49:49.517Z,98281.77
2018-06-28T16:52:18.911Z,98283.52
2018-06-28T16:54:49.448Z,98286.37
2018-06-28T16:57:19.160Z,98282.88
2018-06-28T16:59:48.933Z,98285.09
2018-06-28T17:02:18.277Z,98286.30
2018-06-28T17:04:48.194Z,98295.63
2018-06-28T17:07:18.655Z,98298.81
2018-06-28T17:09:48.166Z,98302.23
2018-06-28T17:12:17.982Z,98305.08
2018-06-28T17:14:47.271Z,98315.63
2018-06-28T17:17:16.942Z,98312.98
2018-06-28T17:19:46.363Z,98316.64
2018-06-28T17:22:15.762Z,98313.25
2018-06-28T17:24:45.111Z,98313.56
2018-06-28T17:27:14.527Z,98315.59
2018-06-28T17:29:44.122Z,98316.89
2018-06-28T17:32:13.478Z,98321.23
2018-06-28T17:34:43.182Z,98317.04
2018-06-28T17:37:12.999Z,98319.60
2018-06-28T17:39:42.319Z,98314.94
2018-06-28T17:42:11.755Z,98321.91
2018-06-28T17:44:40.851Z,98327.52
2018-06-28T17:47:10.527Z,98325.28
2018-06-28T17:49:40.648Z,98327.02
2018-06-28T17:52:09.941Z,98322.47
2018-06-28T17:54:39.075Z,98334.75
2018-06-28T17:57:08.172Z,98333.11
2018-06-28T17:59:37.266Z,98332.83
2018-06-28T18:02:06.372Z,98334.72
2018-06-28T18:04:36.244Z,98342.30
2018-06-28T18:07:05.359Z,98333.28
2018-06-28T18:09:34.443Z,98339.20
2018-06-28T18:12:03.578Z,98343.73
2018-06-28T18:14:32.687Z,98338.94
2018-06-28T18:17:02.591Z,98342.91
2018-06-28T18:19:31.722Z,98333.73
2018-06-28T18:22:02.356Z,98339.32
2018-06-28T18:24:31.511Z,98334.67
2018-06-28T18:27:00.591Z,98335.45
2018-06-28T18:29:29.707Z,98338.92
2018-06-28T18:31:58.866Z,98334.92
2018-06-28T18:34:28.079Z,98328.59
2018-06-28T18:36:57.260Z,98333.67
2018-06-28T18:39:27.450Z,98333.88
2018-06-28T18:41:56.566Z,98333.55
2018-06-28T18:44:26.123Z,98338.10
2018-06-28T18:46:55.234Z,98332.33
2018-06-28T18:49:24.363Z,98334.06
2018-06-28T18:51:54.140Z,98336.01
2018-06-28T18:54:23.287Z,98334.42
2018-06-28T18:56:52.445Z,98326.78
2018-06-28T18:59:21.560Z,98327.30
2018-06-28T19:01:50.757Z,98325.56
2018-06-28T19:04:19.829Z,98328.13
2018-06-28T19:06:48.946Z,98332.00
2018-06-28T19:09:19.160Z,98328.12
2018-06-28T19:11:48.732Z,98330.70
2018-06-28T19:14:23.172Z,98327.86
2018-06-28T19:16:55.151Z,98325.34
2018-06-28T19:19:24.310Z,98325.22
2018-06-28T19:21:58.606Z,98320.91
2018-06-28T19:24:27.783Z,98320.40
2018-06-28T19:26:56.906Z,98324.83
2018-06-28T19:29:31.450Z,98326.30
2018-06-28T19:32:05.870Z,98332.53
2018-06-28T19:34:35.279Z,98326.83
2018-06-28T19:37:05.155Z,98327.73
2018-06-28T19:39:40.541Z,98324.65
2018-06-28T19:42:15.146Z,98324.50
2018-06-28T19:44:44.890Z,98322.95
2018-06-28T19:47:14.683Z,98318.25
2018-06-28T19:49:50.379Z,98316.44
2018-06-28T19:52:27.159Z,98310.63
2018-06-28T19:54:56.794Z,98310.16
2018-06-28T19:57:26.252Z,98303.73
2018-06-28T19:59:55.562Z,98301.52
2018-06-28T20:02:30.138Z,98299.56
2018-06-28T20:04:59.993Z,98301.94
2018-06-28T20:07:29.547Z,98303.59
2018-06-28T20:09:58.734Z,98307.14
2018-06-28T20:12:33.491Z,98307.28
2018-06-28T20:15:08.587Z,98314.85
2018-06-28T20:17:58.590Z,98305.55
2018-06-28T20:20:27.698Z,98306.90
2018-06-28T20:22:57.518Z,98308.13
2018-06-28T20:25:27.039Z,98308.19
2018-06-28T20:28:01.455Z,98307.78
2018-06-28T20:30:35.801Z,98311.88
2018-06-28T20:33:10.662Z,98311.78
2018-06-28T20:35:40.211Z,98310.89
2018-06-28T20:38:09.338Z,98321.69
2018-06-28T20:40:38.663Z,98322.80
2018-06-28T20:43:08.478Z,98332.34
2018-06-28T20:45:37.559Z,98333.86
2018-06-28T20:48:06.695Z,98327.53
2018-06-28T20:50:37.115Z,98321.72
2018-06-28T20:53:06.375Z,98324.45
2018-06-28T20:55:35.805Z,98326.47
2018-06-28T20:58:05.371Z,98320.17
2018-06-28T21:00:34.474Z,98320.95
2018-06-28T21:03:03.576Z,98329.16
2018-06-28T21:05:32.730Z,98317.89
2018-06-28T21:08:02.080Z,98312.60
2018-06-28T21:10:31.231Z,98306.63
2018-06-28T21:13:00.510Z,98299.86
2018-06-28T21:15:29.618Z,98298.77
2018-06-28T21:17:58.710Z,98296.48
2018-06-28T21:20:27.831Z,98297.98
2018-06-28T21:22:57.065Z,98306.75
2018-06-28T21:25:26.958Z,98304.25
2018-06-28T21:27:56.088Z,98307.41
2018-06-28T21:30:25.222Z,98310.53
2018-06-28T21:32:54.358Z,98306.05
2018-06-28T21:35:24.264Z,98307.63
2018-06-28T21:37:53.360Z,98312.48
2018-06-28T21:40:22.464Z,98304.91
2018-06-28T21:42:51.663Z,98306.02
2018-06-28T21:45:21.190Z,98308.98
2018-06-28T21:47:50.310Z,98287.92
2018-06-28T21:50:20.174Z,98292.17
2018-06-28T21:52:49.805Z,98287.29
2018-06-28T21:55:19.234Z,98286.78
2018-06-28T21:57:48.306Z,98283.98
2018-06-28T22:00:34.450Z,98290.05
2018-06-28T22:03:05.606Z,98290.42
2018-06-28T22:05:35.353Z,98290.42
2018-06-28T22:08:05.573Z,98290.96
2018-06-28T22:10:35.071Z,98291.98
2018-06-28T22:13:04.166Z,98289.41
2018-06-28T22:15:34.153Z,98285.63
2018-06-28T22:18:04.455Z,98277.64
2018-06-28T22:20:34.363Z,98278.63
2018-06-28T22:23:03.466Z,98275.18
2018-06-28T22:25:32.580Z,98272.20
2018-06-28T22:28:01.803Z,98267.13
2018-06-28T22:30:31.283Z,98260.67
2018-06-28T22:33:00.368Z,98261.89
2018-06-28T22:35:30.088Z,98261.24
2018-06-28T22:37:59.175Z,98256.00
2018-06-28T22:40:28.289Z,98259.48
2018-06-28T22:42:57.659Z,98253.37
2018-06-28T22:45:26.751Z,98256.21
2018-06-28T22:47:55.863Z,98247.22
2018-06-28T22:50:25.010Z,98246.20
2018-06-28T22:52:54.062Z,98251.09
2018-06-28T22:55:23.939Z,98242.05
2018-06-28T22:57:53.127Z,98241.54
2018-06-28T23:00:31.346Z,98239.88
2018-06-28T23:03:00.543Z,98238.84
2018-06-28T23:05:30.403Z,98238.77
2018-06-28T23:07:59.503Z,98225.30
2018-06-28T23:10:28.618Z,98225.20
2018-06-28T23:12:58.459Z,98222.95
2018-06-28T23:15:27.582Z,98225.02
2018-06-28T23:17:56.682Z,98231.40
2018-06-28T23:20:25.776Z,98236.00
2018-06-28T23:22:55.071Z,98235.61
2018-06-28T23:25:24.195Z,98239.09
2018-06-28T23:27:53.291Z,98234.06
2018-06-28T23:30:22.373Z,98235.38
2018-06-28T23:32:51.555Z,98239.20
2018-06-28T23:35:21.486Z,98233.48
2018-06-28T23:37:50.577Z,98232.47
2018-06-28T23:40:19.759Z,98225.32
2018-06-28T23:42:48.976Z,98220.05
2018-06-28T23:45:17.994Z,98219.38
2018-06-28T23:47:47.153Z,98220.00
2018-06-28T23:50:16.214Z,98218.45
2018-06-28T23:52:45.293Z,98220.39
2018-06-28T23:55:14.425Z,98225.98
2018-06-28T23:57:43.538Z,98218.27
